sensor_id;sensor_type;location;lat;lon;timestamp;P1;durP1;ratioP1;P2;durP2;ratioP2
62790;SDS011;48830;53.426;10.300;2023-02-15T00:01:39;72.60;;;35.60;;
62790;SDS011;48830;53.426;10.300;2023-02-15T00:04:05;71.97;;;35.27;;
62790;SDS011;48830;53.426;10.300;2023-02-15T00:06:31;70.07;;;34.67;;
62790;SDS011;48830;53.426;10.300;2023-02-15T00:08:57;75.60;;;36.00;;
62790;SDS011;48830;53.426;10.300;2023-02-15T00:11:24;72.10;;;35.13;;
62790;SDS011;48830;53.426;10.300;2023-02-15T00:16:39;71.37;;;35.13;;
62790;SDS011;48830;53.426;10.300;2023-02-15T00:19:06;83.17;;;34.23;;
62790;SDS011;48830;53.426;10.300;2023-02-15T00:21:32;75.43;;;35.67;;
62790;SDS011;48830;53.426;10.300;2023-02-15T00:23:59;86.93;;;32.67;;
62790;SDS011;48830;53.426;10.300;2023-02-15T00:26:26;76.83;;;35.53;;
62790;SDS011;48830;53.426;10.300;2023-02-15T00:28:52;74.20;;;34.80;;
62790;SDS011;48830;53.426;10.300;2023-02-15T00:31:18;91.87;;;35.23;;
62790;SDS011;48830;53.426;10.300;2023-02-15T00:33:44;78.80;;;35.07;;
62790;SDS011;48830;53.426;10.300;2023-02-15T00:36:10;101.23;;;36.03;;
62790;SDS011;48830;53.426;10.300;2023-02-15T00:38:36;79.43;;;34.17;;
62790;SDS011;48830;53.426;10.300;2023-02-15T00:41:02;73.43;;;34.57;;
62790;SDS011;48830;53.426;10.300;2023-02-15T00:43:29;84.80;;;35.13;;
62790;SDS011;48830;53.426;10.300;2023-02-15T00:45:56;112.57;;;36.30;;
62790;SDS011;48830;53.426;10.300;2023-02-15T00:48:22;105.37;;;33.73;;
62790;SDS011;48830;53.426;10.300;2023-02-15T00:50:48;74.57;;;33.57;;
62790;SDS011;48830;53.426;10.300;2023-02-15T00:53:15;104.27;;;34.63;;
62790;SDS011;48830;53.426;10.300;2023-02-15T00:55:41;99.43;;;34.27;;
62790;SDS011;48830;53.426;10.300;2023-02-15T00:58:07;100.03;;;35.27;;
62790;SDS011;48830;53.426;10.300;2023-02-15T01:00:34;79.23;;;34.83;;
62790;SDS011;48830;53.426;10.300;2023-02-15T01:03:00;76.37;;;35.63;;
62790;SDS011;48830;53.426;10.300;2023-02-15T01:05:25;76.63;;;33.97;;
62790;SDS011;48830;53.426;10.300;2023-02-15T01:07:51;94.43;;;34.73;;
62790;SDS011;48830;53.426;10.300;2023-02-15T01:10:16;119.00;;;36.20;;
62790;SDS011;48830;53.426;10.300;2023-02-15T01:12:42;74.53;;;35.20;;
62790;SDS011;48830;53.426;10.300;2023-02-15T01:15:07;82.40;;;33.93;;
62790;SDS011;48830;53.426;10.300;2023-02-15T01:17:33;80.17;;;34.53;;
62790;SDS011;48830;53.426;10.300;2023-02-15T01:19:58;114.33;;;35.30;;
62790;SDS011;48830;53.426;10.300;2023-02-15T01:22:24;98.07;;;34.30;;
62790;SDS011;48830;53.426;10.300;2023-02-15T01:24:50;83.03;;;32.70;;
62790;SDS011;48830;53.426;10.300;2023-02-15T01:27:15;66.40;;;32.57;;
62790;SDS011;48830;53.426;10.300;2023-02-15T01:29:42;78.03;;;33.57;;
62790;SDS011;48830;53.426;10.300;2023-02-15T01:32:07;108.33;;;35.60;;
62790;SDS011;48830;53.426;10.300;2023-02-15T01:34:33;173.10;;;36.00;;
62790;SDS011;48830;53.426;10.300;2023-02-15T01:36:58;123.47;;;33.93;;
62790;SDS011;48830;53.426;10.300;2023-02-15T01:39:24;71.40;;;31.60;;
62790;SDS011;48830;53.426;10.300;2023-02-15T01:41:50;98.47;;;33.53;;
62790;SDS011;48830;53.426;10.300;2023-02-15T01:47:10;62.00;;;32.07;;
62790;SDS011;48830;53.426;10.300;2023-02-15T01:49:38;114.70;;;34.23;;
62790;SDS011;48830;53.426;10.300;2023-02-15T01:52:08;75.10;;;32.77;;
62790;SDS011;48830;53.426;10.300;2023-02-15T01:54:35;103.20;;;32.97;;
62790;SDS011;48830;53.426;10.300;2023-02-15T01:57:10;116.17;;;32.27;;
62790;SDS011;48830;53.426;10.300;2023-02-15T01:59:40;74.63;;;32.87;;
62790;SDS011;48830;53.426;10.300;2023-02-15T02:02:11;108.20;;;33.33;;
62790;SDS011;48830;53.426;10.300;2023-02-15T02:04:47;79.07;;;34.33;;
62790;SDS011;48830;53.426;10.300;2023-02-15T02:07:18;117.77;;;34.77;;
62790;SDS011;48830;53.426;10.300;2023-02-15T02:09:47;67.80;;;34.33;;
62790;SDS011;48830;53.426;10.300;2023-02-15T02:12:14;81.10;;;32.87;;
62790;SDS011;48830;53.426;10.300;2023-02-15T02:14:41;87.13;;;33.57;;
62790;SDS011;48830;53.426;10.300;2023-02-15T02:20:17;74.80;;;31.17;;
62790;SDS011;48830;53.426;10.300;2023-02-15T02:23:42;65.73;;;29.40;;
62790;SDS011;48830;53.426;10.300;2023-02-15T02:26:26;71.27;;;28.20;;
62790;SDS011;48830;53.426;10.300;2023-02-15T02:34:32;66.67;;;27.70;;
62790;SDS011;48830;53.426;10.300;2023-02-15T02:40:01;71.10;;;27.77;;
62790;SDS011;48830;53.426;10.300;2023-02-15T02:48:08;65.03;;;26.37;;
62790;SDS011;48830;53.426;10.300;2023-02-15T02:50:38;61.20;;;26.73;;
62790;SDS011;48830;53.426;10.300;2023-02-15T02:53:05;58.50;;;27.07;;
62790;SDS011;48830;53.426;10.300;2023-02-15T02:56:16;69.27;;;25.33;;
62790;SDS011;48830;53.426;10.300;2023-02-15T03:01:01;83.63;;;27.90;;
62790;SDS011;48830;53.426;10.300;2023-02-15T03:03:35;85.77;;;25.60;;
62790;SDS011;48830;53.426;10.300;2023-02-15T03:06:11;76.97;;;27.57;;
62790;SDS011;48830;53.426;10.300;2023-02-15T03:08:45;93.40;;;27.50;;
62790;SDS011;48830;53.426;10.300;2023-02-15T03:11:15;67.63;;;28.70;;
62790;SDS011;48830;53.426;10.300;2023-02-15T03:13:41;102.73;;;28.27;;
62790;SDS011;48830;53.426;10.300;2023-02-15T03:16:10;127.03;;;27.80;;
62790;SDS011;48830;53.426;10.300;2023-02-15T03:18:55;72.07;;;27.43;;
62790;SDS011;48830;53.426;10.300;2023-02-15T03:21:38;75.47;;;27.10;;
62790;SDS011;48830;53.426;10.300;2023-02-15T03:24:15;90.07;;;28.23;;
62790;SDS011;48830;53.426;10.300;2023-02-15T03:26:46;71.47;;;28.27;;
62790;SDS011;48830;53.426;10.300;2023-02-15T03:29:15;74.70;;;26.83;;
62790;SDS011;48830;53.426;10.300;2023-02-15T03:31:45;82.07;;;27.47;;
62790;SDS011;48830;53.426;10.300;2023-02-15T03:34:15;87.00;;;26.90;;
62790;SDS011;48830;53.426;10.300;2023-02-15T03:39:26;92.73;;;27.87;;
62790;SDS011;48830;53.426;10.300;2023-02-15T03:42:09;101.10;;;28.33;;
62790;SDS011;48830;53.426;10.300;2023-02-15T03:45:09;83.33;;;27.40;;
62790;SDS011;48830;53.426;10.300;2023-02-15T03:47:42;61.03;;;26.20;;
62790;SDS011;48830;53.426;10.300;2023-02-15T03:50:22;75.17;;;27.53;;
62790;SDS011;48830;53.426;10.300;2023-02-15T03:53:11;94.53;;;27.37;;
62790;SDS011;48830;53.426;10.300;2023-02-15T03:55:40;79.40;;;26.77;;
62790;SDS011;48830;53.426;10.300;2023-02-15T03:58:06;81.03;;;27.30;;
62790;SDS011;48830;53.426;10.300;2023-02-15T04:01:00;75.10;;;27.27;;
62790;SDS011;48830;53.426;10.300;2023-02-15T04:03:56;103.30;;;26.50;;
62790;SDS011;48830;53.426;10.300;2023-02-15T04:06:25;65.27;;;26.90;;
62790;SDS011;48830;53.426;10.300;2023-02-15T04:08:50;104.33;;;27.77;;
62790;SDS011;48830;53.426;10.300;2023-02-15T04:11:34;69.23;;;26.13;;
62790;SDS011;48830;53.426;10.300;2023-02-15T04:13:59;72.30;;;27.30;;
62790;SDS011;48830;53.426;10.300;2023-02-15T04:16:45;147.33;;;27.33;;
62790;SDS011;48830;53.426;10.300;2023-02-15T04:19:10;66.23;;;27.33;;
62790;SDS011;48830;53.426;10.300;2023-02-15T04:21:54;65.70;;;26.67;;
62790;SDS011;48830;53.426;10.300;2023-02-15T04:24:38;55.27;;;25.13;;
62790;SDS011;48830;53.426;10.300;2023-02-15T04:27:22;84.87;;;27.43;;
62790;SDS011;48830;53.426;10.300;2023-02-15T04:29:47;62.20;;;25.27;;
62790;SDS011;48830;53.426;10.300;2023-02-15T04:32:14;51.80;;;23.87;;
62790;SDS011;48830;53.426;10.300;2023-02-15T04:34:40;63.00;;;25.13;;
62790;SDS011;48830;53.426;10.300;2023-02-15T04:37:05;71.27;;;25.33;;
62790;SDS011;48830;53.426;10.300;2023-02-15T04:39:31;73.27;;;25.00;;
62790;SDS011;48830;53.426;10.300;2023-02-15T04:41:57;103.90;;;25.17;;
62790;SDS011;48830;53.426;10.300;2023-02-15T04:44:22;72.70;;;25.27;;
62790;SDS011;48830;53.426;10.300;2023-02-15T04:46:48;91.17;;;25.27;;
62790;SDS011;48830;53.426;10.300;2023-02-15T04:49:14;61.63;;;23.23;;
62790;SDS011;48830;53.426;10.300;2023-02-15T04:51:39;69.30;;;24.23;;
62790;SDS011;48830;53.426;10.300;2023-02-15T04:54:05;83.67;;;25.23;;
62790;SDS011;48830;53.426;10.300;2023-02-15T04:56:30;52.60;;;23.23;;
62790;SDS011;48830;53.426;10.300;2023-02-15T04:58:58;95.70;;;24.63;;
62790;SDS011;48830;53.426;10.300;2023-02-15T05:01:23;65.23;;;22.97;;
62790;SDS011;48830;53.426;10.300;2023-02-15T05:03:49;58.73;;;24.23;;
62790;SDS011;48830;53.426;10.300;2023-02-15T05:06:14;65.87;;;25.53;;
62790;SDS011;48830;53.426;10.300;2023-02-15T05:08:40;66.43;;;23.23;;
62790;SDS011;48830;53.426;10.300;2023-02-15T05:11:05;57.03;;;23.33;;
62790;SDS011;48830;53.426;10.300;2023-02-15T05:13:30;58.10;;;23.50;;
62790;SDS011;48830;53.426;10.300;2023-02-15T05:15:56;73.53;;;24.23;;
62790;SDS011;48830;53.426;10.300;2023-02-15T05:18:21;105.60;;;23.73;;
62790;SDS011;48830;53.426;10.300;2023-02-15T05:20:47;54.57;;;23.03;;
62790;SDS011;48830;53.426;10.300;2023-02-15T05:23:13;73.90;;;24.10;;
62790;SDS011;48830;53.426;10.300;2023-02-15T05:25:39;82.47;;;23.37;;
62790;SDS011;48830;53.426;10.300;2023-02-15T05:28:24;91.07;;;24.10;;
62790;SDS011;48830;53.426;10.300;2023-02-15T05:33:29;70.93;;;24.83;;
62790;SDS011;48830;53.426;10.300;2023-02-15T05:35:54;91.07;;;26.10;;
62790;SDS011;48830;53.426;10.300;2023-02-15T05:38:20;81.53;;;23.90;;
62790;SDS011;48830;53.426;10.300;2023-02-15T05:40:45;54.53;;;24.43;;
62790;SDS011;48830;53.426;10.300;2023-02-15T05:43:11;64.83;;;24.63;;
62790;SDS011;48830;53.426;10.300;2023-02-15T05:45:36;86.73;;;27.10;;
62790;SDS011;48830;53.426;10.300;2023-02-15T05:48:02;83.03;;;24.87;;
62790;SDS011;48830;53.426;10.300;2023-02-15T05:50:27;74.77;;;23.20;;
62790;SDS011;48830;53.426;10.300;2023-02-15T05:52:53;76.70;;;25.03;;
62790;SDS011;48830;53.426;10.300;2023-02-15T05:55:18;83.53;;;25.73;;
62790;SDS011;48830;53.426;10.300;2023-02-15T05:57:44;79.60;;;24.00;;
62790;SDS011;48830;53.426;10.300;2023-02-15T06:00:09;91.13;;;24.53;;
62790;SDS011;48830;53.426;10.300;2023-02-15T06:02:39;116.10;;;26.77;;
62790;SDS011;48830;53.426;10.300;2023-02-15T06:05:04;121.07;;;24.90;;
62790;SDS011;48830;53.426;10.300;2023-02-15T06:07:30;65.67;;;25.27;;
62790;SDS011;48830;53.426;10.300;2023-02-15T06:09:56;70.67;;;24.40;;
62790;SDS011;48830;53.426;10.300;2023-02-15T06:12:22;84.60;;;24.67;;
62790;SDS011;48830;53.426;10.300;2023-02-15T06:14:47;77.50;;;24.53;;
62790;SDS011;48830;53.426;10.300;2023-02-15T06:17:13;79.77;;;24.90;;
62790;SDS011;48830;53.426;10.300;2023-02-15T06:19:38;96.23;;;24.57;;
62790;SDS011;48830;53.426;10.300;2023-02-15T06:22:04;78.10;;;24.43;;
62790;SDS011;48830;53.426;10.300;2023-02-15T06:24:31;76.13;;;25.17;;
62790;SDS011;48830;53.426;10.300;2023-02-15T06:26:56;97.07;;;24.37;;
62790;SDS011;48830;53.426;10.300;2023-02-15T06:29:22;87.43;;;26.10;;
62790;SDS011;48830;53.426;10.300;2023-02-15T06:31:47;69.50;;;25.80;;
62790;SDS011;48830;53.426;10.300;2023-02-15T06:34:13;77.80;;;24.07;;
62790;SDS011;48830;53.426;10.300;2023-02-15T06:36:38;118.10;;;24.80;;
62790;SDS011;48830;53.426;10.300;2023-02-15T06:39:04;93.27;;;26.50;;
62790;SDS011;48830;53.426;10.300;2023-02-15T06:41:29;81.20;;;25.90;;
62790;SDS011;48830;53.426;10.300;2023-02-15T06:43:55;75.37;;;24.37;;
62790;SDS011;48830;53.426;10.300;2023-02-15T06:46:20;77.63;;;25.00;;
62790;SDS011;48830;53.426;10.300;2023-02-15T06:48:46;97.47;;;26.20;;
62790;SDS011;48830;53.426;10.300;2023-02-15T06:51:11;84.70;;;24.93;;
62790;SDS011;48830;53.426;10.300;2023-02-15T06:53:37;55.53;;;23.13;;
62790;SDS011;48830;53.426;10.300;2023-02-15T06:56:03;85.20;;;25.23;;
62790;SDS011;48830;53.426;10.300;2023-02-15T06:58:35;85.03;;;26.03;;
62790;SDS011;48830;53.426;10.300;2023-02-15T07:01:01;87.23;;;26.47;;
62790;SDS011;48830;53.426;10.300;2023-02-15T07:03:27;102.30;;;28.27;;
62790;SDS011;48830;53.426;10.300;2023-02-15T07:05:56;133.03;;;29.93;;
62790;SDS011;48830;53.426;10.300;2023-02-15T07:08:23;89.37;;;26.03;;
62790;SDS011;48830;53.426;10.300;2023-02-15T07:10:49;91.30;;;25.90;;
62790;SDS011;48830;53.426;10.300;2023-02-15T07:13:15;80.57;;;26.37;;
62790;SDS011;48830;53.426;10.300;2023-02-15T07:15:41;95.67;;;27.47;;
62790;SDS011;48830;53.426;10.300;2023-02-15T07:18:06;99.63;;;26.50;;
62790;SDS011;48830;53.426;10.300;2023-02-15T07:20:32;85.60;;;26.53;;
62790;SDS011;48830;53.426;10.300;2023-02-15T07:23:00;64.03;;;24.83;;
62790;SDS011;48830;53.426;10.300;2023-02-15T07:25:26;99.60;;;26.50;;
62790;SDS011;48830;53.426;10.300;2023-02-15T07:27:56;66.77;;;24.93;;
62790;SDS011;48830;53.426;10.300;2023-02-15T07:30:25;63.40;;;24.27;;
62790;SDS011;48830;53.426;10.300;2023-02-15T07:32:55;99.97;;;26.13;;
62790;SDS011;48830;53.426;10.300;2023-02-15T07:35:46;93.90;;;25.37;;
62790;SDS011;48830;53.426;10.300;2023-02-15T07:38:15;70.10;;;24.37;;
62790;SDS011;48830;53.426;10.300;2023-02-15T07:40:41;92.27;;;26.53;;
62790;SDS011;48830;53.426;10.300;2023-02-15T07:43:07;87.83;;;25.50;;
62790;SDS011;48830;53.426;10.300;2023-02-15T07:45:33;92.43;;;26.37;;
62790;SDS011;48830;53.426;10.300;2023-02-15T07:48:00;73.00;;;26.00;;
62790;SDS011;48830;53.426;10.300;2023-02-15T07:50:26;91.83;;;25.83;;
62790;SDS011;48830;53.426;10.300;2023-02-15T07:52:51;69.77;;;24.97;;
62790;SDS011;48830;53.426;10.300;2023-02-15T07:55:17;82.73;;;26.03;;
62790;SDS011;48830;53.426;10.300;2023-02-15T07:57:44;83.73;;;24.00;;
62790;SDS011;48830;53.426;10.300;2023-02-15T08:00:12;84.90;;;24.87;;
62790;SDS011;48830;53.426;10.300;2023-02-15T08:02:39;71.13;;;24.23;;
62790;SDS011;48830;53.426;10.300;2023-02-15T08:05:05;92.20;;;26.60;;
62790;SDS011;48830;53.426;10.300;2023-02-15T08:07:31;85.60;;;25.87;;
62790;SDS011;48830;53.426;10.300;2023-02-15T08:09:57;73.13;;;24.87;;
62790;SDS011;48830;53.426;10.300;2023-02-15T08:12:25;67.87;;;23.73;;
62790;SDS011;48830;53.426;10.300;2023-02-15T08:14:51;78.20;;;24.20;;
62790;SDS011;48830;53.426;10.300;2023-02-15T08:17:17;49.63;;;23.17;;
62790;SDS011;48830;53.426;10.300;2023-02-15T08:19:43;58.57;;;24.80;;
62790;SDS011;48830;53.426;10.300;2023-02-15T08:22:11;56.70;;;25.27;;
62790;SDS011;48830;53.426;10.300;2023-02-15T08:24:39;55.10;;;23.53;;
62790;SDS011;48830;53.426;10.300;2023-02-15T08:27:08;78.53;;;24.23;;
62790;SDS011;48830;53.426;10.300;2023-02-15T08:29:36;77.90;;;23.83;;
62790;SDS011;48830;53.426;10.300;2023-02-15T08:32:03;86.40;;;24.63;;
62790;SDS011;48830;53.426;10.300;2023-02-15T08:34:36;68.97;;;24.27;;
62790;SDS011;48830;53.426;10.300;2023-02-15T08:37:05;63.03;;;24.43;;
62790;SDS011;48830;53.426;10.300;2023-02-15T08:39:31;55.00;;;23.80;;
62790;SDS011;48830;53.426;10.300;2023-02-15T08:41:56;69.83;;;22.27;;
62790;SDS011;48830;53.426;10.300;2023-02-15T08:44:22;60.23;;;22.13;;
62790;SDS011;48830;53.426;10.300;2023-02-15T08:46:48;60.27;;;22.43;;
62790;SDS011;48830;53.426;10.300;2023-02-15T08:49:15;56.73;;;24.07;;
62790;SDS011;48830;53.426;10.300;2023-02-15T08:51:43;56.83;;;22.70;;
62790;SDS011;48830;53.426;10.300;2023-02-15T08:54:11;53.33;;;24.50;;
62790;SDS011;48830;53.426;10.300;2023-02-15T08:56:39;57.00;;;22.87;;
62790;SDS011;48830;53.426;10.300;2023-02-15T08:59:07;70.03;;;23.20;;
62790;SDS011;48830;53.426;10.300;2023-02-15T09:01:36;84.97;;;22.27;;
62790;SDS011;48830;53.426;10.300;2023-02-15T09:04:05;41.83;;;21.47;;
62790;SDS011;48830;53.426;10.300;2023-02-15T09:06:38;58.50;;;23.10;;
62790;SDS011;48830;53.426;10.300;2023-02-15T09:09:06;63.30;;;23.20;;
62790;SDS011;48830;53.426;10.300;2023-02-15T09:11:35;55.97;;;21.67;;
62790;SDS011;48830;53.426;10.300;2023-02-15T09:14:07;67.27;;;21.97;;
62790;SDS011;48830;53.426;10.300;2023-02-15T09:16:35;71.23;;;24.60;;
62790;SDS011;48830;53.426;10.300;2023-02-15T09:19:02;60.33;;;23.70;;
62790;SDS011;48830;53.426;10.300;2023-02-15T09:21:33;59.53;;;23.37;;
62790;SDS011;48830;53.426;10.300;2023-02-15T09:24:01;57.67;;;23.17;;
62790;SDS011;48830;53.426;10.300;2023-02-15T09:26:30;64.07;;;24.40;;
62790;SDS011;48830;53.426;10.300;2023-02-15T09:28:58;52.73;;;21.97;;
62790;SDS011;48830;53.426;10.300;2023-02-15T09:31:30;54.70;;;22.83;;
62790;SDS011;48830;53.426;10.300;2023-02-15T09:33:58;68.27;;;24.13;;
62790;SDS011;48830;53.426;10.300;2023-02-15T09:36:32;66.43;;;23.03;;
62790;SDS011;48830;53.426;10.300;2023-02-15T09:52:33;35.40;;;19.37;;
62790;SDS011;48830;53.426;10.300;2023-02-15T10:17:11;44.43;;;20.23;;
62790;SDS011;48830;53.426;10.300;2023-02-15T10:34:20;33.90;;;19.37;;
62790;SDS011;48830;53.426;10.300;2023-02-15T10:56:07;30.13;;;18.23;;
62790;SDS011;48830;53.426;10.300;2023-02-15T11:01:40;52.43;;;19.70;;
62790;SDS011;48830;53.426;10.300;2023-02-15T11:12:43;34.03;;;19.60;;
62790;SDS011;48830;53.426;10.300;2023-02-15T11:15:14;32.70;;;19.57;;
62790;SDS011;48830;53.426;10.300;2023-02-15T11:17:51;30.27;;;19.23;;
62790;SDS011;48830;53.426;10.300;2023-02-15T11:23:01;31.13;;;19.03;;
62790;SDS011;48830;53.426;10.300;2023-02-15T11:25:30;29.13;;;18.77;;
62790;SDS011;48830;53.426;10.300;2023-02-15T11:27:58;28.23;;;18.23;;
62790;SDS011;48830;53.426;10.300;2023-02-15T11:30:32;30.50;;;19.07;;
62790;SDS011;48830;53.426;10.300;2023-02-15T11:33:14;32.33;;;20.13;;
62790;SDS011;48830;53.426;10.300;2023-02-15T11:35:53;29.83;;;19.20;;
62790;SDS011;48830;53.426;10.300;2023-02-15T11:38:26;30.10;;;19.40;;
62790;SDS011;48830;53.426;10.300;2023-02-15T11:40:57;31.77;;;18.77;;
62790;SDS011;48830;53.426;10.300;2023-02-15T11:46:23;28.63;;;18.00;;
62790;SDS011;48830;53.426;10.300;2023-02-15T11:48:48;33.17;;;20.00;;
62790;SDS011;48830;53.426;10.300;2023-02-15T11:51:16;30.00;;;18.60;;
62790;SDS011;48830;53.426;10.300;2023-02-15T11:53:44;31.03;;;19.00;;
62790;SDS011;48830;53.426;10.300;2023-02-15T11:56:17;27.27;;;17.63;;
62790;SDS011;48830;53.426;10.300;2023-02-15T11:58:55;29.93;;;18.93;;
62790;SDS011;48830;53.426;10.300;2023-02-15T12:01:28;27.90;;;18.20;;
62790;SDS011;48830;53.426;10.300;2023-02-15T12:06:28;28.87;;;17.80;;
62790;SDS011;48830;53.426;10.300;2023-02-15T12:09:00;27.33;;;17.47;;
62790;SDS011;48830;53.426;10.300;2023-02-15T12:11:45;26.13;;;18.23;;
62790;SDS011;48830;53.426;10.300;2023-02-15T12:14:11;25.67;;;16.70;;
62790;SDS011;48830;53.426;10.300;2023-02-15T12:19:26;26.97;;;17.07;;
62790;SDS011;48830;53.426;10.300;2023-02-15T12:21:53;24.73;;;16.90;;
62790;SDS011;48830;53.426;10.300;2023-02-15T12:24:22;25.07;;;16.87;;
62790;SDS011;48830;53.426;10.300;2023-02-15T12:26:58;23.33;;;16.37;;
62790;SDS011;48830;53.426;10.300;2023-02-15T12:29:50;25.40;;;16.53;;
62790;SDS011;48830;53.426;10.300;2023-02-15T12:32:17;24.10;;;16.83;;
62790;SDS011;48830;53.426;10.300;2023-02-15T12:34:50;22.60;;;15.40;;
62790;SDS011;48830;53.426;10.300;2023-02-15T12:37:21;23.67;;;16.50;;
62790;SDS011;48830;53.426;10.300;2023-02-15T12:39:56;20.70;;;15.30;;
62790;SDS011;48830;53.426;10.300;2023-02-15T12:42:24;23.77;;;17.17;;
62790;SDS011;48830;53.426;10.300;2023-02-15T12:45:20;23.65;;;16.30;;
62790;SDS011;48830;53.426;10.300;2023-02-15T12:48:09;22.05;;;15.20;;
62790;SDS011;48830;53.426;10.300;2023-02-15T12:50:39;23.20;;;16.05;;
62790;SDS011;48830;53.426;10.300;2023-02-15T12:53:14;20.10;;;15.35;;
62790;SDS011;48830;53.426;10.300;2023-02-15T12:55:49;21.15;;;15.40;;
62790;SDS011;48830;53.426;10.300;2023-02-15T12:58:22;21.73;;;15.90;;
62790;SDS011;48830;53.426;10.300;2023-02-15T13:03:34;19.50;;;14.30;;
62790;SDS011;48830;53.426;10.300;2023-02-15T13:06:00;19.52;;;13.90;;
62790;SDS011;48830;53.426;10.300;2023-02-15T13:08:28;20.25;;;14.55;;
62790;SDS011;48830;53.426;10.300;2023-02-15T13:11:06;21.85;;;16.25;;
62790;SDS011;48830;53.426;10.300;2023-02-15T13:13:59;24.48;;;18.08;;
62790;SDS011;48830;53.426;10.300;2023-02-15T13:16:37;22.42;;;15.40;;
62790;SDS011;48830;53.426;10.300;2023-02-15T13:22:07;19.95;;;14.52;;
62790;SDS011;48830;53.426;10.300;2023-02-15T13:24:41;20.55;;;15.15;;
62790;SDS011;48830;53.426;10.300;2023-02-15T13:27:15;21.58;;;15.10;;
62790;SDS011;48830;53.426;10.300;2023-02-15T13:29:49;21.42;;;15.10;;
62790;SDS011;48830;53.426;10.300;2023-02-15T13:34:51;18.80;;;14.63;;
62790;SDS011;48830;53.426;10.300;2023-02-15T13:40:03;24.58;;;15.80;;
62790;SDS011;48830;53.426;10.300;2023-02-15T13:42:38;22.40;;;15.70;;
62790;SDS011;48830;53.426;10.300;2023-02-15T13:48:03;25.38;;;17.75;;
62790;SDS011;48830;53.426;10.300;2023-02-15T13:53:47;22.40;;;17.10;;
62790;SDS011;48830;53.426;10.300;2023-02-15T14:01:42;25.50;;;17.70;;
62790;SDS011;48830;53.426;10.300;2023-02-15T14:04:13;26.27;;;18.23;;
62790;SDS011;48830;53.426;10.300;2023-02-15T14:20:22;27.97;;;19.27;;
62790;SDS011;48830;53.426;10.300;2023-02-15T14:28:10;24.20;;;17.73;;
62790;SDS011;48830;53.426;10.300;2023-02-15T14:30:44;25.13;;;16.70;;
62790;SDS011;48830;53.426;10.300;2023-02-15T14:36:00;22.52;;;16.02;;
62790;SDS011;48830;53.426;10.300;2023-02-15T14:38:36;22.77;;;16.58;;
62790;SDS011;48830;53.426;10.300;2023-02-15T14:41:17;22.45;;;15.75;;
62790;SDS011;48830;53.426;10.300;2023-02-15T14:43:53;21.65;;;16.02;;
62790;SDS011;48830;53.426;10.300;2023-02-15T14:49:12;21.55;;;16.02;;
62790;SDS011;48830;53.426;10.300;2023-02-15T14:54:09;21.35;;;16.27;;
62790;SDS011;48830;53.426;10.300;2023-02-15T14:59:25;22.77;;;16.40;;
62790;SDS011;48830;53.426;10.300;2023-02-15T15:02:15;24.52;;;17.73;;
62790;SDS011;48830;53.426;10.300;2023-02-15T15:04:55;21.42;;;16.17;;
62790;SDS011;48830;53.426;10.300;2023-02-15T15:07:24;19.70;;;15.07;;
62790;SDS011;48830;53.426;10.300;2023-02-15T15:12:51;22.10;;;16.60;;
62790;SDS011;48830;53.426;10.300;2023-02-15T15:17:53;21.90;;;16.30;;
62790;SDS011;48830;53.426;10.300;2023-02-15T15:21:04;23.30;;;16.73;;
62790;SDS011;48830;53.426;10.300;2023-02-15T15:42:41;26.23;;;18.40;;
62790;SDS011;48830;53.426;10.300;2023-02-15T15:50:53;25.83;;;18.50;;
62790;SDS011;48830;53.426;10.300;2023-02-15T15:53:22;28.37;;;19.27;;
62790;SDS011;48830;53.426;10.300;2023-02-15T15:55:50;26.50;;;18.57;;
62790;SDS011;48830;53.426;10.300;2023-02-15T15:58:21;30.70;;;19.10;;
62790;SDS011;48830;53.426;10.300;2023-02-15T16:00:52;27.63;;;18.57;;
62790;SDS011;48830;53.426;10.300;2023-02-15T16:03:25;26.67;;;18.30;;
62790;SDS011;48830;53.426;10.300;2023-02-15T16:05:52;28.00;;;19.07;;
62790;SDS011;48830;53.426;10.300;2023-02-15T16:08:41;31.17;;;19.20;;
62790;SDS011;48830;53.426;10.300;2023-02-15T16:14:18;30.23;;;20.30;;
62790;SDS011;48830;53.426;10.300;2023-02-15T16:16:49;30.03;;;19.57;;
62790;SDS011;48830;53.426;10.300;2023-02-15T16:19:22;30.60;;;21.07;;
62790;SDS011;48830;53.426;10.300;2023-02-15T16:21:53;30.27;;;20.53;;
62790;SDS011;48830;53.426;10.300;2023-02-15T16:30:17;29.63;;;21.27;;
62790;SDS011;48830;53.426;10.300;2023-02-15T16:32:49;32.83;;;21.57;;
62790;SDS011;48830;53.426;10.300;2023-02-15T16:35:19;30.07;;;20.83;;
62790;SDS011;48830;53.426;10.300;2023-02-15T16:37:45;28.17;;;19.50;;
62790;SDS011;48830;53.426;10.300;2023-02-15T16:40:56;25.73;;;18.60;;
62790;SDS011;48830;53.426;10.300;2023-02-15T16:43:04;27.13;;;18.37;;
62790;SDS011;48830;53.426;10.300;2023-02-15T16:45:36;28.20;;;18.93;;
62790;SDS011;48830;53.426;10.300;2023-02-15T16:48:05;30.73;;;19.27;;
62790;SDS011;48830;53.426;10.300;2023-02-15T16:50:37;27.67;;;18.53;;
62790;SDS011;48830;53.426;10.300;2023-02-15T16:53:03;28.40;;;19.37;;
62790;SDS011;48830;53.426;10.300;2023-02-15T16:55:39;27.57;;;19.13;;
62790;SDS011;48830;53.426;10.300;2023-02-15T16:58:07;29.70;;;20.80;;
62790;SDS011;48830;53.426;10.300;2023-02-15T17:00:40;32.67;;;20.80;;
62790;SDS011;48830;53.426;10.300;2023-02-15T17:03:19;32.93;;;21.50;;
62790;SDS011;48830;53.426;10.300;2023-02-15T17:05:48;30.47;;;21.37;;
62790;SDS011;48830;53.426;10.300;2023-02-15T17:16:40;31.20;;;20.00;;
62790;SDS011;48830;53.426;10.300;2023-02-15T17:19:24;26.13;;;18.93;;
62790;SDS011;48830;53.426;10.300;2023-02-15T17:21:54;29.50;;;20.47;;
62790;SDS011;48830;53.426;10.300;2023-02-15T17:26:56;29.63;;;20.70;;
62790;SDS011;48830;53.426;10.300;2023-02-15T17:29:31;29.73;;;20.07;;
62790;SDS011;48830;53.426;10.300;2023-02-15T17:31:57;28.23;;;19.33;;
62790;SDS011;48830;53.426;10.300;2023-02-15T17:37:22;27.53;;;18.63;;
62790;SDS011;48830;53.426;10.300;2023-02-15T17:39:48;28.03;;;18.73;;
62790;SDS011;48830;53.426;10.300;2023-02-15T17:42:13;27.83;;;18.63;;
62790;SDS011;48830;53.426;10.300;2023-02-15T17:44:39;34.63;;;22.23;;
62790;SDS011;48830;53.426;10.300;2023-02-15T17:47:04;37.53;;;22.57;;
62790;SDS011;48830;53.426;10.300;2023-02-15T17:49:30;28.80;;;18.90;;
62790;SDS011;48830;53.426;10.300;2023-02-15T17:52:00;28.33;;;19.10;;
62790;SDS011;48830;53.426;10.300;2023-02-15T17:54:26;28.63;;;18.83;;
62790;SDS011;48830;53.426;10.300;2023-02-15T17:57:12;29.40;;;19.33;;
62790;SDS011;48830;53.426;10.300;2023-02-15T17:59:38;25.17;;;18.03;;
62790;SDS011;48830;53.426;10.300;2023-02-15T18:02:22;28.93;;;19.17;;
62790;SDS011;48830;53.426;10.300;2023-02-15T18:05:13;32.50;;;21.50;;
62790;SDS011;48830;53.426;10.300;2023-02-15T18:07:57;33.47;;;22.47;;
62790;SDS011;48830;53.426;10.300;2023-02-15T18:10:42;32.27;;;21.70;;
62790;SDS011;48830;53.426;10.300;2023-02-15T18:13:25;32.87;;;22.43;;
62790;SDS011;48830;53.426;10.300;2023-02-15T18:15:51;34.97;;;22.37;;